Time;durP1;ratioP1;P1;durP2;ratioP2;P2;SDS_P1;SDS_P2;PMS_P1;PMS_P2;Temp;Humidity;BMP_temperature;BMP_pressure;BME280_temperature;BME280_humidity;BME280_pressure;Samples;Min_cycle;Max_cycle;Signal;HPM_P1;HPM_P2
2020/12/03 00:01:32;;;;;;;70.40;30.25;;;;;;;-0.11;83.12;100562.44;1705070;82;21121;-68
2020/12/03 00:04:02;;;;;;;67.95;30.60;;;;;;;-0.11;83.24;100566.50;1705822;82;21121;-70
2020/12/03 00:06:34;;;;;;;66.92;29.75;;;;;;;-0.11;83.36;100566.50;1708660;82;21162;-69
2020/12/03 00:09:09;;;;;;;71.75;32.03;;;;;;;-0.09;83.30;100569.83;1709836;82;21150;-70
2020/12/03 00:11:49;;;;;;;75.25;32.15;;;;;;;-0.09;83.27;100570.66;1706011;82;21146;-68
2020/12/03 00:14:18;;;;;;;76.62;30.97;;;;;;;-0.08;83.34;100574.18;1717844;83;21173;-69
2020/12/03 00:16:58;;;;;;;71.20;30.02;;;;;;;-0.07;83.20;100571.25;1694013;84;21169;-69
2020/12/03 00:19:45;;;;;;;65.08;30.08;;;;;;;-0.09;83.18;100567.95;1694060;84;21361;-70
2020/12/03 00:22:13;;;;;;;63.78;29.80;;;;;;;-0.08;83.31;100563.34;1723905;82;21119;-68
2020/12/03 00:24:40;;;;;;;70.15;31.90;;;;;;;-0.08;83.27;100564.17;1721743;83;21165;-69
2020/12/03 00:27:12;;;;;;;68.80;30.52;;;;;;;-0.08;83.16;100555.21;1709165;82;21157;-71
2020/12/03 00:30:05;;;;;;;68.75;28.32;;;;;;;-0.09;83.24;100553.05;1701750;84;21162;-70
2020/12/03 00:32:33;;;;;;;67.72;29.70;;;;;;;-0.07;83.24;100552.82;1709896;82;21331;-68
2020/12/03 00:35:01;;;;;;;66.22;29.20;;;;;;;-0.07;83.32;100554.17;1701656;84;21134;-69
2020/12/03 00:37:53;;;;;;;66.92;31.68;;;;;;;-0.06;83.34;100555.83;1712564;82;21177;-70
2020/12/03 00:40:27;;;;;;;63.05;29.07;;;;;;;-0.04;83.34;100549.66;1705882;82;21597;-68
2020/12/03 00:43:16;;;;;;;66.20;30.35;;;;;;;-0.04;83.25;100554.56;1705687;82;21113;-69
2020/12/03 00:46:04;;;;;;;73.85;31.17;;;;;;;-0.03;83.22;100544.53;1709884;82;21284;-68
2020/12/03 00:48:53;;;;;;;68.17;28.83;;;;;;;-0.04;83.23;100545.08;1705075;82;21210;-70
2020/12/03 00:52:01;;;;;;;76.60;32.60;;;;;;;-0.04;83.12;100544.24;1688916;83;21170;-71
2020/12/03 00:54:31;;;;;;;73.62;30.02;;;;;;;-0.05;83.14;100548.02;1741862;81;21131;-70
2020/12/03 00:56:59;;;;;;;74.60;30.75;;;;;;;-0.06;83.14;100547.17;1738419;82;21154;-70
2020/12/03 00:59:30;;;;;;;69.75;30.68;;;;;;;-0.07;83.14;100548.20;1742227;81;22103;-67
2020/12/03 01:02:20;;;;;;;77.60;33.18;;;;;;;-0.06;83.26;100539.56;1738137;80;21225;-68
2020/12/03 01:04:49;;;;;;;85.65;32.73;;;;;;;-0.07;83.23;100541.44;1741724;80;21609;-68
2020/12/03 01:07:18;;;;;;;80.72;32.38;;;;;;;-0.05;83.28;100545.30;1742082;81;21634;-67
2020/12/03 01:10:08;;;;;;;80.05;30.27;;;;;;;-0.06;83.13;100543.11;1742767;81;21171;-68
2020/12/03 01:12:37;;;;;;;86.60;32.13;;;;;;;-0.05;83.19;100543.95;1744023;81;21375;-70
2020/12/03 01:15:24;;;;;;;75.75;30.10;;;;;;;-0.03;83.21;100538.59;1740488;81;21157;-68
2020/12/03 01:18:32;;;;;;;77.60;31.87;;;;;;;-0.04;83.21;100538.30;1745738;81;21113;-68
2020/12/03 01:21:00;;;;;;;77.58;31.40;;;;;;;-0.02;83.23;100534.82;1742257;81;21154;-67
2020/12/03 01:23:50;;;;;;;85.35;35.03;;;;;;;-0.01;83.23;100530.23;1743085;81;21564;-67
2020/12/03 01:26:19;;;;;;;78.97;35.98;;;;;;;0.01;83.24;100536.78;1742024;81;21228;-67
2020/12/03 01:28:54;;;;;;;81.37;36.10;;;;;;;0.02;83.22;100534.39;1722813;82;21125;-67
2020/12/03 01:31:21;;;;;;;79.25;36.25;;;;;;;0.03;83.29;100533.33;1749544;81;21119;-68
2020/12/03 01:33:49;;;;;;;74.17;34.85;;;;;;;0.03;83.30;100534.17;1682952;84;21170;-66
2020/12/03 01:36:22;;;;;;;81.28;33.92;;;;;;;0.03;83.25;100530.62;1743596;81;21159;-68
2020/12/03 01:39:14;;;;;;;74.25;35.35;;;;;;;0.04;83.26;100540.39;1739271;81;21139;-69
2020/12/03 01:42:02;;;;;;;75.45;35.63;;;;;;;0.03;83.27;100536.05;1684699;84;21142;-69
2020/12/03 01:44:49;;;;;;;87.50;35.40;;;;;;;0.02;83.28;100531.69;1742127;81;21587;-68
2020/12/03 01:47:39;;;;;;;75.65;34.27;;;;;;;0.01;83.31;100528.14;1737700;80;21149;-69
2020/12/03 01:50:08;;;;;;;74.85;34.33;;;;;;;0.01;83.41;100524.59;1742516;81;21181;-69
2020/12/03 01:53:11;;;;;;;77.35;33.58;;;;;;;0.01;83.46;100528.66;1751246;80;21414;-67
2020/12/03 01:55:39;;;;;;;74.77;32.55;;;;;;;0.04;83.57;100524.13;1682159;84;21150;-70
2020/12/03 01:58:10;;;;;;;79.12;35.48;;;;;;;0.04;83.57;100530.91;1684308;84;21127;-69
2020/12/03 02:01:02;;;;;;;81.50;35.73;;;;;;;0.04;83.48;100529.04;1674675;83;21176;-68
2020/12/03 02:03:58;;;;;;;81.80;35.20;;;;;;;0.04;83.43;100526.84;1681011;83;21134;-67
2020/12/03 02:06:38;;;;;;;77.42;34.53;;;;;;;0.03;83.40;100531.97;1676571;85;22270;-68
2020/12/03 02:09:11;;;;;;;93.80;35.80;;;;;;;0.01;83.35;100525.42;1737847;82;21602;-69
2020/12/03 02:12:19;;;;;;;77.32;33.53;;;;;;;0.02;83.44;100523.55;1745394;81;21118;-68
2020/12/03 02:14:47;;;;;;;83.40;32.42;;;;;;;0.03;83.42;100530.62;1738341;82;21552;-67
2020/12/03 02:17:18;;;;;;;74.92;34.13;;;;;;;0.02;83.44;100528.42;1738216;82;21150;-68
2020/12/03 02:19:59;;;;;;;85.87;36.15;;;;;;;0.01;83.43;100528.14;1741767;81;22344;-69
2020/12/03 02:22:49;;;;;;;78.95;34.58;;;;;;;0.01;83.46;100531.36;1744468;81;21153;-67
2020/12/03 02:25:43;;;;;;;82.22;36.03;;;;;;;0.00;83.42;100533.27;1742027;81;21178;-68
2020/12/03 02:28:10;;;;;;;81.00;34.63;;;;;;;-0.01;83.55;100533.78;1738140;82;21126;-68
2020/12/03 02:31:19;;;;;;;78.12;36.42;;;;;;;-0.01;83.53;100527.01;1753321;80;21635;-67
2020/12/03 02:33:48;;;;;;;81.05;34.45;;;;;;;0.01;83.57;100530.84;1738326;82;21204;-68
2020/12/03 02:36:57;;;;;;;78.05;34.85;;;;;;;0.01;83.54;100529.48;1749188;81;21149;-68
2020/12/03 02:39:37;;;;;;;103.78;39.27;;;;;;;0.01;83.57;100525.94;1742005;81;21133;-68
2020/12/03 02:42:12;;;;;;;93.47;37.88;;;;;;;0.02;83.58;100528.97;1741886;81;21159;-68
2020/12/03 02:44:45;;;;;;;85.03;37.63;;;;;;;0.01;83.52;100521.87;1750012;81;21581;-68
2020/12/03 02:47:16;;;;;;;96.78;38.48;;;;;;;0.02;83.52;100530.33;1746150;81;21384;-70
2020/12/03 02:49:46;;;;;;;80.62;34.65;;;;;;;0.00;83.56;100522.42;1738023;82;21520;-70
2020/12/03 02:52:26;;;;;;;79.72;35.13;;;;;;;0.01;83.43;100523.23;1740432;81;21122;-68
2020/12/03 02:54:55;;;;;;;85.80;35.75;;;;;;;-0.01;83.42;100519.39;1741080;81;21170;-69
2020/12/03 02:57:22;;;;;;;91.05;39.92;;;;;;;-0.02;83.39;100521.27;1738110;82;21575;-69
2020/12/03 02:59:50;;;;;;;100.27;38.48;;;;;;;-0.01;83.40;100523.45;1745888;81;21356;-69
2020/12/03 03:02:42;;;;;;;88.90;38.15;;;;;;;-0.02;83.41;100517.75;1743923;80;21161;-71
2020/12/03 03:05:12;;;;;;;80.32;35.70;;;;;;;-0.03;83.48;100522.33;1742193;81;21186;-68
2020/12/03 03:08:00;;;;;;;80.22;34.63;;;;;;;-0.03;83.48;100526.40;1745917;81;21151;-67
2020/12/03 03:10:27;;;;;;;81.85;33.13;;;;;;;-0.02;83.51;100523.17;1742095;81;21154;-69
2020/12/03 03:13:23;;;;;;;79.25;33.45;;;;;;;-0.02;83.57;100521.81;1744745;81;21559;-68
2020/12/03 03:15:52;;;;;;;89.40;34.00;;;;;;;-0.02;83.57;100522.63;1685099;84;21134;-67
2020/12/03 03:18:21;;;;;;;76.82;34.40;;;;;;;-0.02;83.62;100523.17;1680365;84;21146;-67
2020/12/03 03:20:52;;;;;;;78.97;36.95;;;;;;;-0.01;83.63;100526.17;1741908;81;22481;-70
2020/12/03 03:23:43;;;;;;;88.05;36.10;;;;;;;-0.02;83.61;100515.84;1750837;81;21114;-72
2020/12/03 03:26:10;;;;;;;83.17;36.23;;;;;;;-0.02;83.57;100514.49;1741849;81;21449;-68
2020/12/03 03:28:40;;;;;;;86.80;37.30;;;;;;;-0.02;83.60;100512.33;1741918;81;21154;-68
2020/12/03 03:31:07;;;;;;;84.30;35.83;;;;;;;-0.03;83.62;100511.49;1737974;82;21099;-69
2020/12/03 03:33:35;;;;;;;81.97;36.03;;;;;;;-0.03;83.66;100514.20;1742882;81;21126;-70
2020/12/03 03:36:03;;;;;;;85.35;36.53;;;;;;;-0.02;83.64;100515.04;1744529;81;21108;-69
2020/12/03 03:39:12;;;;;;;98.05;39.60;;;;;;;-0.03;83.62;100515.56;1741402;81;21153;-69
2020/12/03 03:41:43;;;;;;;98.75;38.50;;;;;;;-0.04;83.61;100517.98;1659834;84;21130;-70
2020/12/03 03:44:13;;;;;;;89.62;37.33;;;;;;;-0.04;83.61;100517.98;1742152;81;21096;-68
2020/12/03 03:46:52;;;;;;;90.72;37.42;;;;;;;-0.05;83.69;100513.59;1742276;81;21159;-68
2020/12/03 03:49:23;;;;;;;90.03;38.17;;;;;;;-0.05;83.70;100519.02;1738265;82;21123;-67
2020/12/03 03:51:55;;;;;;;81.87;36.35;;;;;;;-0.05;83.78;100517.66;1741989;81;21215;-69
2020/12/03 03:54:24;;;;;;;84.22;36.77;;;;;;;-0.03;83.81;100519.63;1745985;81;21075;-69
2020/12/03 03:56:52;;;;;;;81.78;35.83;;;;;;;-0.04;83.71;100513.91;1738438;82;21587;-68
2020/12/03 04:00:03;;;;;;;99.85;40.30;;;;;;;-0.04;83.70;100513.08;1741820;81;21217;-71
2020/12/03 04:02:34;;;;;;;96.02;39.05;;;;;;;-0.04;83.71;100521.20;1741994;81;21127;-69
2020/12/03 04:05:08;;;;;;;82.65;35.98;;;;;;;-0.05;83.60;100519.56;1744390;81;22119;-69
2020/12/03 04:07:39;;;;;;;73.07;32.65;;;;;;;-0.07;83.56;100517.05;1744425;80;21144;-68
2020/12/03 04:10:07;;;;;;;82.40;34.95;;;;;;;-0.06;83.72;100513.82;1745188;81;21554;-69
2020/12/03 04:12:55;;;;;;;79.75;32.78;;;;;;;-0.06;83.64;100506.53;1669967;84;21189;-68
2020/12/03 04:15:23;;;;;;;85.10;35.88;;;;;;;-0.08;83.54;100507.27;1687541;84;21150;-68
2020/12/03 04:18:30;;;;;;;88.35;34.88;;;;;;;-0.09;83.57;100508.85;1679975;84;21231;-67
2020/12/03 04:21:00;;;;;;;80.65;35.17;;;;;;;-0.10;83.47;100512.08;1681761;84;21765;-68
2020/12/03 04:23:28;;;;;;;79.80;33.25;;;;;;;-0.11;83.46;100506.89;1685494;84;21535;-69
2020/12/03 04:25:58;;;;;;;89.42;34.55;;;;;;;-0.14;83.51;100507.63;1664848;84;21208;-67
2020/12/03 04:28:26;;;;;;;69.82;32.98;;;;;;;-0.13;83.55;100508.47;1682148;84;21174;-67
2020/12/03 04:31:13;;;;;;;76.57;33.40;;;;;;;-0.13;83.64;100508.47;1742268;81;21790;-67
2020/12/03 04:33:42;;;;;;;81.35;34.25;;;;;;;-0.14;83.56;100508.98;1716838;81;21594;-69
2020/12/03 04:36:17;;;;;;;74.77;32.35;;;;;;;-0.15;83.62;100510.56;1742135;81;21158;-69
2020/12/03 04:38:45;;;;;;;78.02;32.45;;;;;;;-0.15;83.61;100515.98;1738339;82;21592;-69
2020/12/03 04:41:35;;;;;;;73.78;32.60;;;;;;;-0.15;83.59;100516.83;1747940;80;22460;-71
2020/12/03 04:44:44;;;;;;;67.37;29.77;;;;;;;-0.15;83.63;100515.47;1741415;81;21140;-68
2020/12/03 04:47:47;;;;;;;66.45;31.10;;;;;;;-0.14;83.69;100520.38;1737034;81;21102;-68
2020/12/03 04:51:17;;;;;;;74.75;32.53;;;;;;;-0.15;83.70;100526.31;1747546;80;21196;-68
2020/12/03 04:54:17;;;;;;;68.15;30.30;;;;;;;-0.16;83.62;100526.02;1661156;85;21647;-68
2020/12/03 04:56:57;;;;;;;74.00;31.57;;;;;;;-0.17;83.61;100522.98;1751581;80;21570;-67
2020/12/03 04:59:51;;;;;;;68.62;30.25;;;;;;;-0.19;83.63;100525.11;1753411;80;21416;-67
2020/12/03 05:02:42;;;;;;;74.60;32.78;;;;;;;-0.18;83.68;100519.15;1697655;83;21205;-68
2020/12/03 05:05:56;;;;;;;63.00;28.23;;;;;;;-0.19;83.71;100516.15;1696134;84;21155;-68
2020/12/03 05:08:49;;;;;;;71.05;29.37;;;;;;;-0.18;83.70;100519.15;1688092;83;21552;-70
2020/12/03 05:11:28;;;;;;;69.15;28.42;;;;;;;-0.18;83.74;100513.73;1638757;86;21208;-69
2020/12/03 05:14:03;;;;;;;70.10;31.48;;;;;;;-0.18;83.67;100516.44;1618891;86;22402;-68
2020/12/03 05:16:36;;;;;;;76.22;31.95;;;;;;;-0.21;83.67;100512.83;1721036;82;21094;-68
2020/12/03 05:19:19;;;;;;;66.67;29.20;;;;;;;-0.21;83.72;100511.47;1753503;80;21137;-69
2020/12/03 05:21:47;;;;;;;75.28;31.52;;;;;;;-0.20;83.71;100518.53;1745487;80;21134;-68
2020/12/03 05:24:35;;;;;;;65.57;28.80;;;;;;;-0.20;83.70;100513.95;1751126;80;21610;-70
2020/12/03 05:27:05;;;;;;;66.25;28.67;;;;;;;-0.19;83.69;100518.86;1749263;80;21542;-69
2020/12/03 05:29:56;;;;;;;68.20;29.35;;;;;;;-0.19;83.72;100514.27;1747453;80;21149;-68
2020/12/03 05:32:23;;;;;;;69.35;30.65;;;;;;;-0.18;83.79;100517.80;1750659;80;21134;-68
2020/12/03 05:34:53;;;;;;;63.85;30.02;;;;;;;-0.18;83.80;100524.05;1754894;80;21134;-68
2020/12/03 05:37:25;;;;;;;67.37;28.35;;;;;;;-0.18;83.77;100523.22;1749271;80;21130;-69
2020/12/03 05:39:57;;;;;;;61.80;27.70;;;;;;;-0.17;83.71;100527.59;1744918;82;21567;-68
2020/12/03 05:42:35;;;;;;;65.28;28.92;;;;;;;-0.17;83.63;100524.34;1744345;80;21129;-68
2020/12/03 05:45:30;;;;;;;65.20;28.75;;;;;;;-0.16;83.63;100531.95;1674597;84;21626;-68
2020/12/03 05:47:59;;;;;;;65.28;28.83;;;;;;;-0.16;83.68;100521.95;1693067;84;22632;-68
2020/12/03 05:50:52;;;;;;;70.15;31.30;;;;;;;-0.17;83.76;100523.53;1666728;84;21161;-68
2020/12/03 05:53:24;;;;;;;65.15;29.65;;;;;;;-0.17;83.75;100528.41;1682946;84;21484;-68
2020/12/03 05:55:52;;;;;;;56.98;25.43;;;;;;;-0.17;83.75;100531.66;1738070;82;24856;-67
2020/12/03 05:58:33;;;;;;;68.45;29.85;;;;;;;-0.14;83.76;100539.34;1738307;82;21122;-67
2020/12/03 06:01:11;;;;;;;62.85;28.45;;;;;;;-0.13;83.74;100541.83;1745766;81;21080;-69
2020/12/03 06:04:25;;;;;;;61.23;27.45;;;;;;;-0.11;83.76;100533.47;1729817;81;21177;-68
2020/12/03 06:07:08;;;;;;;64.22;28.67;;;;;;;-0.11;83.72;100529.41;1746082;81;21170;-68
2020/12/03 06:09:51;;;;;;;67.90;29.67;;;;;;;-0.10;83.68;100536.47;1743240;81;21205;-68
2020/12/03 06:13:05;;;;;;;69.40;26.30;;;;;;;-0.11;83.64;100532.11;1688192;84;21139;-67
2020/12/03 06:15:52;;;;;;;66.02;28.17;;;;;;;-0.11;83.64;100530.76;1742198;81;21082;-68
2020/12/03 06:19:03;;;;;;;69.53;28.20;;;;;;;-0.11;83.52;100532.11;1742107;81;22119;-69
2020/12/03 06:22:03;;;;;;;55.15;26.30;;;;;;;-0.11;83.52;100532.11;1744352;81;21594;-68
2020/12/03 06:25:45;;;;;;;66.72;28.73;;;;;;;-0.11;83.52;100533.47;1741981;81;21603;-71
2020/12/03 06:28:43;;;;;;;65.25;26.95;;;;;;;-0.11;83.67;100525.86;1748757;81;21158;-68
2020/12/03 06:31:39;;;;;;;57.95;26.85;;;;;;;-0.11;83.67;100533.47;1711506;83;21154;-69
2020/12/03 06:34:42;;;;;;;54.45;26.68;;;;;;;-0.10;83.63;100532.41;1707592;83;21650;-68
2020/12/03 06:37:27;;;;;;;54.60;26.25;;;;;;;-0.05;83.64;100531.20;1822159;78;23861;-68
2020/12/03 06:40:02;;;;;;;54.73;26.25;;;;;;;-0.07;83.68;100532.50;1799300;79;21570;-67
2020/12/03 06:43:09;;;;;;;47.65;23.38;;;;;;;-0.07;83.66;100529.79;1791292;79;21205;-67
2020/12/03 06:45:52;;;;;;;66.22;28.42;;;;;;;-0.06;83.61;100530.08;1791234;79;21142;-68
2020/12/03 06:49:20;;;;;;;61.85;28.17;;;;;;;-0.06;83.52;100533.62;1797318;79;21118;-67
2020/12/03 06:52:36;;;;;;;60.45;26.35;;;;;;;-0.06;83.46;100533.62;1793527;79;21551;-68
2020/12/03 06:55:55;;;;;;;64.07;26.82;;;;;;;-0.06;83.49;100537.69;1791787;79;21093;-68
2020/12/03 06:58:49;;;;;;;53.50;24.10;;;;;;;-0.06;83.63;100541.76;1795245;79;21276;-69
2020/12/03 07:01:58;;;;;;;69.05;27.32;;;;;;;-0.04;83.57;100543.72;1789340;79;20979;-68
2020/12/03 07:05:30;;;;;;;66.95;29.80;;;;;;;-0.04;83.56;100541.02;1794128;79;20956;-68
2020/12/03 07:08:09;;;;;;;59.58;26.05;;;;;;;-0.03;83.65;100541.82;1791789;79;21145;-67
2020/12/03 07:10:57;;;;;;;56.80;23.00;;;;;;;-0.02;83.56;100545.66;1790525;79;21102;-68
2020/12/03 07:14:13;;;;;;;66.33;25.15;;;;;;;-0.01;83.66;100547.33;1759003;79;21968;-67
2020/12/03 07:17:22;;;;;;;53.90;23.85;;;;;;;0.01;83.64;100544.40;1704422;83;21232;-69
2020/12/03 07:20:24;;;;;;;64.53;24.65;;;;;;;0.02;83.55;100551.47;1798518;79;21149;-69
2020/12/03 07:23:00;;;;;;;63.83;27.00;;;;;;;0.01;83.53;100546.27;1775207;79;21157;-72
2020/12/03 07:25:48;;;;;;;63.45;26.07;;;;;;;0.01;83.58;100544.91;1795546;79;21109;-69
2020/12/03 07:28:25;;;;;;;60.73;23.85;;;;;;;0.01;83.49;100551.17;1794083;79;21451;-69
2020/12/03 07:31:24;;;;;;;60.12;25.70;;;;;;;0.01;83.44;100555.75;1769050;79;21101;-68
2020/12/03 07:34:17;;;;;;;55.65;24.87;;;;;;;0.02;83.56;100551.47;1797547;78;21142;-67
2020/12/03 07:36:58;;;;;;;52.90;24.72;;;;;;;0.04;83.50;100548.53;1775135;78;21118;-68
2020/12/03 07:39:34;;;;;;;67.72;26.60;;;;;;;0.03;83.53;100556.37;1766475;80;21168;-68
2020/12/03 07:42:23;;;;;;;60.70;25.00;;;;;;;0.03;83.49;100560.44;1746457;81;21183;-68
2020/12/03 07:44:55;;;;;;;61.02;26.75;;;;;;;0.02;83.48;100558.23;1758254;81;21160;-67
2020/12/03 07:47:33;;;;;;;55.28;25.97;;;;;;;0.03;83.45;100554.50;1750859;81;21150;-68
2020/12/03 07:50:28;;;;;;;58.13;25.50;;;;;;;0.04;83.49;100552.08;1752993;81;21161;-68
2020/12/03 07:53:16;;;;;;;58.68;25.00;;;;;;;0.08;83.53;100553.81;1752857;81;21133;-69
2020/12/03 07:56:25;;;;;;;55.92;25.08;;;;;;;0.07;83.46;100553.53;1697446;81;21445;-68
2020/12/03 07:59:31;;;;;;;63.78;27.07;;;;;;;0.09;83.56;100555.46;1718232;81;21167;-69
2020/12/03 08:02:01;;;;;;;65.22;28.42;;;;;;;0.09;83.49;100552.23;1757883;81;21624;-71
2020/12/03 08:05:42;;;;;;;70.03;30.43;;;;;;;0.09;83.52;100550.04;1749080;81;21549;-69
2020/12/03 08:08:42;;;;;;;82.05;29.10;;;;;;;0.09;83.57;100545.98;1747942;81;21533;-69
2020/12/03 08:11:52;;;;;;;72.55;29.10;;;;;;;0.11;83.53;100548.78;1753087;81;21202;-67
2020/12/03 08:14:31;;;;;;;67.67;27.65;;;;;;;0.13;83.55;100549.06;1760092;80;21133;-67
2020/12/03 08:17:01;;;;;;;68.87;31.17;;;;;;;0.14;83.60;100551.55;1751539;81;21098;-67
2020/12/03 08:20:15;;;;;;;81.50;33.60;;;;;;;0.13;83.47;100553.14;1742936;80;21166;-69
2020/12/03 08:23:25;;;;;;;82.33;33.25;;;;;;;0.12;83.48;100549.58;1747069;81;21121;-68
2020/12/03 08:26:25;;;;;;;73.52;31.68;;;;;;;0.11;83.48;100549.30;1741013;81;21514;-68
2020/12/03 08:28:54;;;;;;;91.00;33.80;;;;;;;0.11;83.53;100545.23;1745298;81;21190;-69
2020/12/03 08:31:24;;;;;;;79.25;32.28;;;;;;;0.11;83.52;100545.23;1746071;81;21181;-69
2020/12/03 08:33:54;;;;;;;77.92;32.95;;;;;;;0.11;83.46;100542.52;1761299;81;21116;-69
2020/12/03 08:36:24;;;;;;;85.42;33.35;;;;;;;0.11;83.53;100534.38;1758286;79;21170;-69
2020/12/03 08:38:56;;;;;;;91.72;35.70;;;;;;;0.13;83.57;100546.36;1791023;78;21622;-68
2020/12/03 08:41:43;;;;;;;87.02;38.40;;;;;;;0.12;83.59;100537.39;1774702;79;21154;-68
2020/12/03 08:44:15;;;;;;;90.05;36.20;;;;;;;0.13;83.52;100543.13;1798461;79;21122;-69
2020/12/03 08:46:52;;;;;;;77.95;32.45;;;;;;;0.13;83.48;100532.28;1804978;79;21563;-68
2020/12/03 08:49:45;;;;;;;81.67;32.90;;;;;;;0.14;83.42;100523.09;1752986;79;21196;-70
2020/12/03 08:52:19;;;;;;;76.35;34.03;;;;;;;0.12;83.40;100522.48;1791119;79;21242;-68
2020/12/03 08:55:27;;;;;;;89.70;35.05;;;;;;;0.11;83.50;100517.61;1786807;79;21174;-70
2020/12/03 08:57:55;;;;;;;82.35;34.67;;;;;;;0.14;83.54;100513.59;1768669;79;21606;-72
2020/12/03 09:00:44;;;;;;;80.45;35.45;;;;;;;0.14;83.50;100507.38;1769725;79;21555;-68
2020/12/03 09:03:15;;;;;;;84.37;37.23;;;;;;;0.14;83.56;100502.76;1751718;79;21142;-69
2020/12/03 09:05:45;;;;;;;88.70;36.98;;;;;;;0.15;83.62;100499.01;1803388;79;22307;-68
2020/12/03 09:08:39;;;;;;;86.32;36.10;;;;;;;0.18;83.65;100498.55;1803303;79;21102;-66
2020/12/03 09:11:07;;;;;;;82.55;35.00;;;;;;;0.20;83.67;100496.97;1784947;79;21769;-68
2020/12/03 09:13:57;;;;;;;85.10;36.28;;;;;;;0.23;83.85;100490.57;1769847;79;21173;-71
2020/12/03 09:16:28;;;;;;;87.65;34.43;;;;;;;0.29;83.85;100497.50;1764315;79;21238;-70
2020/12/03 09:19:23;;;;;;;80.92;32.13;;;;;;;0.31;83.72;100485.35;1748215;81;21368;-71
2020/12/03 09:21:54;;;;;;;101.07;37.60;;;;;;;0.32;83.60;100487.55;1766002;81;21186;-67
2020/12/03 09:24:40;;;;;;;85.62;36.28;;;;;;;0.32;83.39;100491.09;1722908;81;21121;-68
2020/12/03 09:27:18;;;;;;;91.80;37.63;;;;;;;0.30;83.31;100489.65;1721906;82;21123;-69
2020/12/03 09:29:53;;;;;;;85.45;35.13;;;;;;;0.29;83.33;100486.65;1712453;82;21110;-70
2020/12/03 09:32:24;;;;;;;75.62;33.85;;;;;;;0.30;83.40;100488.30;1727558;82;22185;-71
2020/12/03 09:35:11;;;;;;;74.87;32.25;;;;;;;0.29;83.40;100482.03;1714938;82;21202;-68
2020/12/03 09:38:02;;;;;;;67.82;30.02;;;;;;;0.30;83.37;100469.31;1703840;81;21157;-68
2020/12/03 09:40:37;;;;;;;73.15;31.70;;;;;;;0.32;83.41;100476.70;1711448;81;21138;-71
2020/12/03 09:43:08;;;;;;;79.03;33.78;;;;;;;0.33;83.32;100474.27;1750676;79;21585;-69
2020/12/03 09:45:48;;;;;;;78.97;32.00;;;;;;;0.33;83.32;100475.11;1754476;79;21436;-72
2020/12/03 09:48:20;;;;;;;74.22;31.30;;;;;;;0.35;83.27;100477.59;1783561;79;22354;-69
2020/12/03 09:50:49;;;;;;;67.92;30.05;;;;;;;0.37;83.26;100480.91;1780546;79;21599;-72
2020/12/03 09:53:22;;;;;;;60.92;28.60;;;;;;;0.40;83.20;100485.03;1778255;79;21213;-67
2020/12/03 09:56:02;;;;;;;60.03;27.35;;;;;;;0.42;83.06;100485.13;1734760;82;21741;-68
2020/12/03 09:58:59;;;;;;;61.55;27.70;;;;;;;0.43;82.95;100473.73;1754819;79;22604;-71
2020/12/03 10:02:16;;;;;;;63.83;29.20;;;;;;;0.43;82.94;100477.80;1764084;78;21146;-69
2020/12/03 10:05:14;;;;;;;56.53;27.75;;;;;;;0.43;82.82;100477.80;1771287;79;21110;-68
2020/12/03 10:08:22;;;;;;;63.68;29.50;;;;;;;0.42;82.84;100478.34;1778355;79;21561;-68
2020/12/03 10:11:20;;;;;;;60.00;27.62;;;;;;;0.42;82.57;100472.08;1743633;82;22153;-68
2020/12/03 10:14:10;;;;;;;55.67;27.10;;;;;;;0.38;82.52;100464.93;1788658;79;21478;-67
2020/12/03 10:17:07;;;;;;;57.27;27.67;;;;;;;0.39;82.73;100461.70;1789950;79;21148;-67
2020/12/03 10:20:00;;;;;;;51.98;26.48;;;;;;;0.42;82.69;100459.88;1724762;79;21140;-70
2020/12/03 10:22:50;;;;;;;56.18;28.50;;;;;;;0.42;82.75;100458.00;1763452;79;21123;-70
2020/12/03 10:25:21;;;;;;;62.45;27.50;;;;;;;0.44;82.72;100461.32;1794170;79;21172;-68
2020/12/03 10:28:25;;;;;;;62.78;28.38;;;;;;;0.45;82.61;100470.27;1777541;79;21372;-68
2020/12/03 10:30:53;;;;;;;59.00;28.10;;;;;;;0.43;82.33;100468.30;1778649;79;21611;-68
2020/12/03 10:33:24;;;;;;;58.40;27.95;;;;;;;0.37;82.34;100466.00;1779426;79;21146;-68
2020/12/03 10:35:55;;;;;;;;;;;;;;;0.36;82.39;100462.45;1780251;79;21170;-68
2020/12/03 10:38:35;;;;;;;60.95;28.15;;;;;;;0.38;82.51;100462.73;1744831;80;20270;-68
2020/12/03 10:41:17;;;;;;;61.02;27.55;;;;;;;0.40;82.54;100463.34;1783915;79;21186;-68
2020/12/03 10:44:16;;;;;;;58.28;27.45;;;;;;;0.42;82.54;100462.59;1752832;79;21127;-66
2020/12/03 10:46:48;;;;;;;68.15;30.17;;;;;;;0.42;82.45;100455.81;1775482;79;21615;-68
2020/12/03 10:49:38;;;;;;;60.23;28.90;;;;;;;0.43;82.45;100447.96;1747455;80;21165;-69
2020/12/03 10:52:13;;;;;;;59.23;28.50;;;;;;;0.44;82.39;100449.12;1779097;79;21163;-67
2020/12/03 10:54:42;;;;;;;50.75;27.65;;;;;;;0.45;82.34;100445.34;1784639;79;21361;-68
2020/12/03 10:57:21;;;;;;;53.50;27.27;;;;;;;0.46;82.43;100451.05;1773997;80;21453;-67
2020/12/03 10:59:58;;;;;;;55.43;28.62;;;;;;;0.48;82.46;100439.97;1779685;79;21150;-68
2020/12/03 11:02:44;;;;;;;60.95;29.63;;;;;;;0.51;82.45;100431.91;1772432;79;21146;-70
2020/12/03 11:05:19;;;;;;;54.38;28.10;;;;;;;0.54;82.49;100430.92;1750323;82;21112;-69
2020/12/03 11:07:55;;;;;;;58.28;27.95;;;;;;;0.57;82.42;100430.98;1751080;80;21374;-67
2020/12/03 11:10:33;;;;;;;55.83;28.43;;;;;;;0.57;82.27;100430.47;1797062;79;21098;-69
2020/12/03 11:13:11;;;;;;;64.42;28.52;;;;;;;0.59;82.34;100429.71;1769144;79;21118;-69
2020/12/03 11:16:07;;;;;;;52.30;26.90;;;;;;;0.62;82.32;100425.70;1751236;79;21133;-68
2020/12/03 11:18:51;;;;;;;56.92;27.90;;;;;;;0.64;82.21;100431.72;1778235;79;22211;-67
2020/12/03 11:21:27;;;;;;;58.03;28.77;;;;;;;0.65;82.08;100437.98;1745747;80;21355;-69
2020/12/03 11:24:28;;;;;;;56.63;28.73;;;;;;;0.64;82.05;100437.67;1793195;79;21138;-71
2020/12/03 11:27:02;;;;;;;61.63;27.77;;;;;;;0.63;81.96;100445.00;1739717;79;21129;-70
2020/12/03 11:29:35;;;;;;;65.35;29.67;;;;;;;0.63;81.87;100444.16;1770678;80;21181;-69
2020/12/03 11:32:05;;;;;;;62.67;28.02;;;;;;;0.61;81.73;100440.33;1770055;80;21204;-71
2020/12/03 11:34:39;;;;;;;55.98;28.02;;;;;;;0.59;81.88;100433.78;1770784;79;22536;-68
2020/12/03 11:37:13;;;;;;;60.23;27.95;;;;;;;0.63;82.02;100433.31;1772666;79;21169;-68
2020/12/03 11:39:42;;;;;;;61.50;29.20;;;;;;;0.63;82.00;100434.15;1786137;77;21526;-68
2020/12/03 11:42:30;;;;;;;55.70;26.48;;;;;;;0.63;81.97;100434.15;1787189;79;21106;-69
2020/12/03 11:50:38;;;;;;;61.23;28.32;;;;;;;0.58;81.67;100420.45;1786081;79;21582;-68
2020/12/03 11:53:06;;;;;;;56.02;28.25;;;;;;;0.54;81.65;100426.02;1778645;79;21610;-67
2020/12/03 11:55:39;;;;;;;62.85;29.27;;;;;;;0.52;81.84;100430.33;1779574;79;21126;-71
2020/12/03 11:58:10;;;;;;;55.35;28.32;;;;;;;0.53;81.91;100423.02;1778378;79;21122;-67
2020/12/03 12:01:10;;;;;;;70.32;32.40;;;;;;;0.54;82.00;100426.02;1776016;78;22224;-70
2020/12/03 12:03:50;;;;;;;65.55;31.90;;;;;;;0.58;82.07;100429.39;1809327;77;22678;-67
2020/12/03 12:06:33;;;;;;;65.62;31.95;;;;;;;0.54;81.98;100429.58;1767248;79;21102;-67
2020/12/03 12:09:22;;;;;;;61.25;30.57;;;;;;;0.53;81.87;100426.55;1785636;79;21385;-68
2020/12/03 12:11:46;;;;;;;60.70;27.67;;;;;;;0.48;81.81;100424.53;1782776;79;21169;-68
2020/12/03 12:14:33;;;;;;;75.42;32.13;;;;;;;0.47;81.92;100428.31;1753969;79;21956;-68
2020/12/03 12:17:00;;;;;;;63.50;29.70;;;;;;;0.47;81.75;100431.55;1781318;80;21579;-68
2020/12/03 12:19:29;;;;;;;60.38;29.40;;;;;;;0.47;81.76;100430.19;1781371;80;21591;-71
2020/12/03 12:22:19;;;;;;;61.90;30.40;;;;;;;0.48;81.75;100426.41;1772502;79;21129;-68
2020/12/03 12:24:49;;;;;;;67.47;32.00;;;;;;;0.47;81.70;100421.53;1780652;79;20999;-68
2020/12/03 12:27:16;;;;;;;66.15;32.23;;;;;;;0.48;81.70;100416.91;1780963;79;21169;-68
2020/12/03 12:29:44;;;;;;;63.05;29.12;;;;;;;0.50;81.74;100418.88;1787276;79;21152;-69
2020/12/03 12:32:14;;;;;;;55.65;26.75;;;;;;;0.48;81.60;100413.68;1781732;79;21150;-72